LEZG/ZAZ METAR and TAF weather

Enter ICAO airport designator
Station Type Date Time Source
LEZG METAR 2020/02/25 13:00 UTC NOAA

LEZG 251300Z 31011KT 250V340 CAVOK 17/03 Q1018


Station Type Date Time Source
LEZG Decoded METAR 2020/02/25 13:00 UTC NOAA

Zaragoza / Aeropuerto, Spain (LEZG) 41-40N 001-01W 258M
Feb 25, 2020 - 08:00 AM EST / 2020.02.25 1300 UTC
Wind: from the NW (310 degrees) at 13 MPH (11 KT) (direction variable):0
Visibility: greater than 7 mile(s):0
Temperature: 62 F (17 C)
Dew Point: 37 F (3 C)
Relative Humidity: 39%
Pressure (altimeter): 30.06 in. Hg (1018 hPa)
ob: LEZG 251300Z 31011KT 250V340 CAVOK 17/03 Q1018
cycle: 13

Station Type Date Time Source
LEZG TAF 2020/02/25 12:27 UTC NOAA

TAF LEZG 251100Z 2512/2612 31012KT CAVOK TX17/2515Z TN05/2606Z
BECMG 2608/2610 31020G30KT

Example: see airport list